首页
METAR-TAF:

METAR-TAF

机场 :

班斯卡-比斯特里察, 斯洛伐克

纬度: 48-38-17N, 经度: 019-08-03E, 海拔: 318米

当前天气观测

该预报发布于35分钟前的05:30 UTC
风速1节,风向多变
温度 1°C
湿度 93%
气压 1020 hPa
能见度10公里或以上
少量云层高于200英尺
阴天层高于2800英尺

METAR: LZSL 230530Z VRB01KT 9999 FEW002 OVC028 01/00 Q1020

时间: 07:05 (06:05 UTC)

预报

该预报发布于1小时和5分钟前的05:00 UTC
预报有效从23日的 06点(UTC)到 23日的 15点(UTC)
风速4节,风向
能见度10公里或以上
阴天层高于2500英尺
短暂存在
从 23日的 06点(UTC)到 23日的 15点(UTC)
小雨
成为
从 23日的 09点(UTC)到 23日的 11点(UTC)
风速9节,风向西转西南

TAF: LZSL 230500Z 2306/2315 19004KT 9999 OVC025 TEMPO 2306/2315 -RA BECMG 2309/2311 24009KT

超过4000个机场的气象观测和天气预报(METAR&TAF报告)。

可查询的气象台以黄色和红色小点在地图上表示。

将鼠标移到小点上方,可查看气象台名称。

然后点击查看天气观测和预报。

如需切换地图:点击带黑十字的绿色按钮放大地图;点击带横线的绿色按钮缩小地图;或者点击绿色箭头查看邻近地区的地图。


METAR-TAF: